Двоевка

Карта отелей и гостиниц, располагающихся рядом с аэропортом Двоевка :

Двоевка
Вязьма
Смоленская область 55° 8' 56.1012" N, 34° 22' 58.7388" E
Двоевка
Вязьма
Смоленская область 55° 8' 56.1012" N, 34° 22' 58.7388" E
Код аэродрома ИКАО
XUMR
Код аэродрома RU
ЬУМР
Координаты
N55.14892° E034.38298°
Превышение над уровнем моря
241
Основная полоса
36/18
Курс магнитный
003,7/183,7
Длина основной ВПП
2000
Ширина основной ВПП
49
Покрытие основной ВПП
Твёрдое (бетон)
Освещение ВПП
Нет
Тип: 
Аэродром
Класс аэродрома: 
Принадлежность: 
МО
Статус: 
Действующий
Сайт: 
E-mail аэродрома: 
Страна: 
Россия
Регион: 
Смоленская область
Город: 
Вязьма
Дополнительная информация: 
Оператор: ВКС России и ДОСААФ. Базируются: 378-я авиабаза армейской авиации (2 разряда) на вертолётах Ми-24, Ми-8, Ми-28Н, Ка-52; Вяземский аэроклуб РОСТО (преобразованный из Вяземского УАЦ ДОСААФ). В состав аэроклуба входит пилотажная группа «Русь» на самолётах L-39. ГВПП (2000x30м) в рабочем состоянии не поддерживается. Нкр.=(300-500)м. ДПРС: 361-"NQ", БПРС: 735-"N" (735-DW).


Найти трансфер

С помощью этой формы Вы можете найти трансфер из аэропорта Двоевка в город, аэропорт или вокзал:

Погода в аэропортах:

Авиационная погода в Рощино

Регион: 
Погода METAR: 
USTR 212300Z 17005MPS 9999 -SHRA BKN016CB 09/08 Q0989 R21/290060 R30/////99 TEMPO 2100 -SHRA BR BKN004 BKN016CB
Время наблюдения
2022-05-21T23:00:00Z
Температура C
9.0
Точка росы
8.0
Направление ветра
170
Скорость ветра (узлы)
10
Метео видимость
6.21
Облачность
BKN
Нижняя граница облачности (футы)
1600
Явления погоды
-SHRA
Условия полета
MVFR
Аэропорт подробнее: 
BKN – значительная (рассеянная, разорванная) облачность;
-SHRA - слабый ливневой дождь;

Авиационная погода в Актобе

Регион: 
Погода METAR: 
UATT 212300Z 29009MPS 9000 -RA BKN008 OVC036 06/04 Q1003 NOSIG RMK QFE733/0977
Время наблюдения
2022-05-21T23:00:00Z
Температура C
6.0
Точка росы
4.0
Направление ветра
290
Скорость ветра (узлы)
17
Метео видимость
5.59
Облачность
BKN
OVC
Нижняя граница облачности (футы)
800
3600
Явления погоды
-RA
Условия полета
IFR
Аэропорт подробнее: 
BKN – значительная (рассеянная, разорванная) облачность; OVC – сплошная облачность;
-RA - слабый дождь;

Авиационная погода в Воронеже

Регион: 
Погода METAR: 
UUOO 212300Z 08004MPS 9999 -SHRA BKN011 BKN///CB 09/08 Q1000 R12/290155 NOSIG RMK QFE736
Время наблюдения
2022-05-21T23:00:00Z
Температура C
9.0
Точка росы
8.0
Направление ветра
80
Скорость ветра (узлы)
8
Метео видимость
6.21
Облачность
BKN
Нижняя граница облачности (футы)
1100
Явления погоды
-SHRA
Условия полета
MVFR
Аэропорт подробнее: 
BKN – значительная (рассеянная, разорванная) облачность;
-SHRA - слабый ливневой дождь;

Авиационная погода в Витебске

Регион: 
Погода METAR: 
UMII 212300Z 06004G07MPS 4600 -RA OVC009 08/07 Q1000 TEMPO 2000 RA BKN005
Время наблюдения
2022-05-21T23:00:00Z
Температура C
8.0
Точка росы
7.0
Направление ветра
60
Скорость ветра (узлы)
8
Метео видимость
2.86
Облачность
OVC
Нижняя граница облачности (футы)
900
Явления погоды
-RA
Условия полета
IFR
OVC – сплошная облачность;
-RA - слабый дождь;